sensor_id;sensor_type;location;lat;lon;timestamp;pressure;altitude;pressure_sealevel;temperature;humidity
2761;BME280;15420;48.636;9.798;2023-01-27T00:00:54;96785.97;;;1.39;100.00
2761;BME280;15420;48.636;9.798;2023-01-27T00:03:20;96792.81;;;1.40;100.00
2761;BME280;15420;48.636;9.798;2023-01-27T00:05:47;96794.38;;;1.38;100.00
2761;BME280;15420;48.636;9.798;2023-01-27T00:08:13;96790.19;;;1.38;100.00
2761;BME280;15420;48.636;9.798;2023-01-27T00:10:39;96787.66;;;1.38;100.00
2761;BME280;15420;48.636;9.798;2023-01-27T00:13:06;96783.34;;;1.37;100.00
2761;BME280;15420;48.636;9.798;2023-01-27T00:15:50;96792.63;;;1.37;100.00
2761;BME280;15420;48.636;9.798;2023-01-27T00:18:16;96789.31;;;1.38;100.00
2761;BME280;15420;48.636;9.798;2023-01-27T00:20:45;96785.91;;;1.37;100.00
2761;BME280;15420;48.636;9.798;2023-01-27T00:23:29;96780.66;;;1.34;100.00
2761;BME280;15420;48.636;9.798;2023-01-27T00:26:16;96778.19;;;1.36;100.00
2761;BME280;15420;48.636;9.798;2023-01-27T00:28:44;96773.91;;;1.35;100.00
2761;BME280;15420;48.636;9.798;2023-01-27T00:31:12;96770.59;;;1.36;100.00
2761;BME280;15420;48.636;9.798;2023-01-27T00:33:58;96767.09;;;1.34;100.00
2761;BME280;15420;48.636;9.798;2023-01-27T00:36:35;96773.03;;;1.34;100.00
2761;BME280;15420;48.636;9.798;2023-01-27T00:39:02;96772.16;;;1.34;100.00
2761;BME280;15420;48.636;9.798;2023-01-27T00:41:28;96778.97;;;1.35;100.00
2761;BME280;15420;48.636;9.798;2023-01-27T00:43:54;96773.91;;;1.35;100.00
2761;BME280;15420;48.636;9.798;2023-01-27T00:46:24;96780.72;;;1.36;100.00
2761;BME280;15420;48.636;9.798;2023-01-27T00:48:53;96783.28;;;1.36;100.00
2761;BME280;15420;48.636;9.798;2023-01-27T00:51:19;96784.16;;;1.36;100.00
2761;BME280;15420;48.636;9.798;2023-01-27T00:53:50;96786.69;;;1.36;100.00
2761;BME280;15420;48.636;9.798;2023-01-27T00:56:17;96776.63;;;1.38;100.00
2761;BME280;15420;48.636;9.798;2023-01-27T00:58:43;96775.75;;;1.37;100.00
2761;BME280;15420;48.636;9.798;2023-01-27T01:01:14;96784.22;;;1.38;100.00
2761;BME280;15420;48.636;9.798;2023-01-27T01:03:40;96789.31;;;1.38;100.00
2761;BME280;15420;48.636;9.798;2023-01-27T01:06:10;96792.63;;;1.37;100.00
2761;BME280;15420;48.636;9.798;2023-01-27T01:08:38;96791.75;;;1.36;100.00
2761;BME280;15420;48.636;9.798;2023-01-27T01:11:06;96785.81;;;1.36;100.00
2761;BME280;15420;48.636;9.798;2023-01-27T01:13:33;96796.84;;;1.36;100.00
2761;BME280;15420;48.636;9.798;2023-01-27T01:16:05;96791.75;;;1.36;100.00
2761;BME280;15420;48.636;9.798;2023-01-27T01:18:33;96792.53;;;1.35;100.00
2761;BME280;15420;48.636;9.798;2023-01-27T01:21:00;96792.53;;;1.35;100.00
2761;BME280;15420;48.636;9.798;2023-01-27T01:23:26;96798.50;;;1.36;100.00
2761;BME280;15420;48.636;9.798;2023-01-27T01:25:53;96787.38;;;1.34;100.00
2761;BME280;15420;48.636;9.798;2023-01-27T01:28:20;96795.09;;;1.35;100.00
2761;BME280;15420;48.636;9.798;2023-01-27T01:30:49;96785.72;;;1.34;100.00
2761;BME280;15420;48.636;9.798;2023-01-27T01:33:16;96788.19;;;1.33;100.00
2761;BME280;15420;48.636;9.798;2023-01-27T01:35:42;96791.59;;;1.33;100.00
2761;BME280;15420;48.636;9.798;2023-01-27T01:38:11;96794.91;;;1.32;100.00
2761;BME280;15420;48.636;9.798;2023-01-27T01:40:44;96794.91;;;1.32;100.00
2761;BME280;15420;48.636;9.798;2023-01-27T01:43:15;96795.69;;;1.31;100.00
2761;BME280;15420;48.636;9.798;2023-01-27T01:45:46;96787.22;;;1.30;100.00
2761;BME280;15420;48.636;9.798;2023-01-27T01:50:44;96779.53;;;1.29;100.00
2761;BME280;15420;48.636;9.798;2023-01-27T01:53:13;96776.09;;;1.28;100.00
2761;BME280;15420;48.636;9.798;2023-01-27T01:55:40;96785.47;;;1.29;100.00
2761;BME280;15420;48.636;9.798;2023-01-27T01:58:11;96782.06;;;1.29;100.00
2761;BME280;15420;48.636;9.798;2023-01-27T02:00:38;96777.78;;;1.28;100.00
2761;BME280;15420;48.636;9.798;2023-01-27T02:03:06;96766.75;;;1.27;100.00
2761;BME280;15420;48.636;9.798;2023-01-27T02:05:36;96776.09;;;1.28;100.00
2761;BME280;15420;48.636;9.798;2023-01-27T02:08:29;96777.94;;;1.31;100.00
2761;BME280;15420;48.636;9.798;2023-01-27T02:10:59;96775.94;;;1.25;100.00
2761;BME280;15420;48.636;9.798;2023-01-27T02:13:25;96778.56;;;1.27;100.00
2761;BME280;15420;48.636;9.798;2023-01-27T02:15:54;96773.56;;;1.28;100.00
2761;BME280;15420;48.636;9.798;2023-01-27T02:18:21;96772.78;;;1.29;100.00
2761;BME280;15420;48.636;9.798;2023-01-27T02:20:49;96756.59;;;1.27;100.00
2761;BME280;15420;48.636;9.798;2023-01-27T02:23:43;96765.16;;;1.29;100.00
2761;BME280;15420;48.636;9.798;2023-01-27T02:26:19;96760.78;;;1.27;100.00
2761;BME280;15420;48.636;9.798;2023-01-27T02:28:56;96761.75;;;1.29;100.00
2761;BME280;15420;48.636;9.798;2023-01-27T02:31:25;96751.53;;;1.27;100.00
2761;BME280;15420;48.636;9.798;2023-01-27T02:33:53;96767.63;;;1.28;100.00
2761;BME280;15420;48.636;9.798;2023-01-27T02:36:22;96754.84;;;1.26;100.00
2761;BME280;15420;48.636;9.798;2023-01-27T02:38:51;96748.03;;;1.25;100.00
2761;BME280;15420;48.636;9.798;2023-01-27T02:41:34;96755.63;;;1.25;100.00
2761;BME280;15420;48.636;9.798;2023-01-27T02:44:04;96758.19;;;1.25;100.00
2761;BME280;15420;48.636;9.798;2023-01-27T02:46:34;96756.50;;;1.26;100.00
2761;BME280;15420;48.636;9.798;2023-01-27T02:49:01;96763.25;;;1.25;100.00
2761;BME280;15420;48.636;9.798;2023-01-27T02:51:27;96750.56;;;1.25;100.00
2761;BME280;15420;48.636;9.798;2023-01-27T02:53:54;96752.22;;;1.25;100.00
2761;BME280;15420;48.636;9.798;2023-01-27T02:56:23;96747.06;;;1.23;100.00
2761;BME280;15420;48.636;9.798;2023-01-27T02:58:49;96754.69;;;1.23;100.00
2761;BME280;15420;48.636;9.798;2023-01-27T03:01:18;96745.31;;;1.22;100.00
2761;BME280;15420;48.636;9.798;2023-01-27T03:03:44;96755.47;;;1.22;100.00
2761;BME280;15420;48.636;9.798;2023-01-27T03:06:13;96752.94;;;1.22;100.00
2761;BME280;15420;48.636;9.798;2023-01-27T03:08:40;96755.47;;;1.22;100.00
2761;BME280;15420;48.636;9.798;2023-01-27T03:11:10;96759.66;;;1.22;100.00
2761;BME280;15420;48.636;9.798;2023-01-27T03:13:37;96755.38;;;1.21;100.00
2761;BME280;15420;48.636;9.798;2023-01-27T03:16:06;96757.91;;;1.21;100.00
2761;BME280;15420;48.636;9.798;2023-01-27T03:18:53;96762.13;;;1.20;100.00
2761;BME280;15420;48.636;9.798;2023-01-27T03:21:26;96757.84;;;1.19;100.00
2761;BME280;15420;48.636;9.798;2023-01-27T03:23:55;96755.28;;;1.19;100.00
2761;BME280;15420;48.636;9.798;2023-01-27T03:26:23;96752.75;;;1.19;100.00
2761;BME280;15420;48.636;9.798;2023-01-27T03:28:49;96755.28;;;1.19;100.00
2761;BME280;15420;48.636;9.798;2023-01-27T03:31:38;96759.56;;;1.20;100.00
2761;BME280;15420;48.636;9.798;2023-01-27T03:34:04;96762.13;;;1.20;100.00
2761;BME280;15420;48.636;9.798;2023-01-27T03:36:30;96763.78;;;1.20;100.00
2761;BME280;15420;48.636;9.798;2023-01-27T03:39:17;96764.56;;;1.19;100.00
2761;BME280;15420;48.636;9.798;2023-01-27T03:42:02;96774.81;;;1.20;100.00
2761;BME280;15420;48.636;9.798;2023-01-27T03:44:47;96767.88;;;1.18;100.00
2761;BME280;15420;48.636;9.798;2023-01-27T03:47:34;96769.63;;;1.19;100.00
2761;BME280;15420;48.636;9.798;2023-01-27T03:50:00;96782.31;;;1.19;100.00
2761;BME280;15420;48.636;9.798;2023-01-27T03:52:30;96770.44;;;1.18;100.00
2761;BME280;15420;48.636;9.798;2023-01-27T03:54:58;96770.44;;;1.18;100.00
2761;BME280;15420;48.636;9.798;2023-01-27T03:57:27;96767.88;;;1.18;100.00
2761;BME280;15420;48.636;9.798;2023-01-27T03:59:53;96764.47;;;1.17;100.00
2761;BME280;15420;48.636;9.798;2023-01-27T04:02:19;96765.34;;;1.18;100.00
2761;BME280;15420;48.636;9.798;2023-01-27T04:05:04;96758.53;;;1.17;100.00
2761;BME280;15420;48.636;9.798;2023-01-27T04:07:49;96750.03;;;1.16;100.00
2761;BME280;15420;48.636;9.798;2023-01-27T04:10:18;96750.13;;;1.18;100.00
2761;BME280;15420;48.636;9.798;2023-01-27T04:12:46;96749.25;;;1.17;100.00
2761;BME280;15420;48.636;9.798;2023-01-27T04:15:17;96751.78;;;1.17;100.00
2761;BME280;15420;48.636;9.798;2023-01-27T04:17:50;96740.06;;;1.19;100.00
2761;BME280;15420;48.636;9.798;2023-01-27T04:20:16;96734.91;;;1.18;100.00
2761;BME280;15420;48.636;9.798;2023-01-27T04:22:42;96724.75;;;1.18;100.00
2761;BME280;15420;48.636;9.798;2023-01-27T04:25:09;96734.13;;;1.19;100.00
2761;BME280;15420;48.636;9.798;2023-01-27T04:27:35;96734.13;;;1.19;100.00
2761;BME280;15420;48.636;9.798;2023-01-27T04:30:04;96738.31;;;1.18;100.00
2761;BME280;15420;48.636;9.798;2023-01-27T04:32:30;96753.53;;;1.18;100.00
2761;BME280;15420;48.636;9.798;2023-01-27T04:34:56;96753.53;;;1.18;100.00
2761;BME280;15420;48.636;9.798;2023-01-27T04:37:22;96763.78;;;1.20;100.00
2761;BME280;15420;48.636;9.798;2023-01-27T04:39:48;96764.56;;;1.19;100.00
2761;BME280;15420;48.636;9.798;2023-01-27T04:42:17;96765.34;;;1.18;100.00
2761;BME280;15420;48.636;9.798;2023-01-27T04:44:43;96773.06;;;1.19;100.00
2761;BME280;15420;48.636;9.798;2023-01-27T04:47:11;96771.31;;;1.18;100.00
2761;BME280;15420;48.636;9.798;2023-01-27T04:49:37;96782.41;;;1.20;100.00
2761;BME280;15420;48.636;9.798;2023-01-27T04:52:04;96784.00;;;1.18;100.00
2761;BME280;15420;48.636;9.798;2023-01-27T04:54:30;96794.13;;;1.18;100.00
2761;BME280;15420;48.636;9.798;2023-01-27T04:56:59;96784.78;;;1.17;100.00
2761;BME280;15420;48.636;9.798;2023-01-27T04:59:30;96784.78;;;1.17;100.00
2761;BME280;15420;48.636;9.798;2023-01-27T05:01:56;96786.34;;;1.15;100.00
2761;BME280;15420;48.636;9.798;2023-01-27T05:04:22;96794.84;;;1.16;100.00
2761;BME280;15420;48.636;9.798;2023-01-27T05:06:50;96789.69;;;1.14;100.00
2761;BME280;15420;48.636;9.798;2023-01-27T05:09:16;96790.63;;;1.16;100.00
2761;BME280;15420;48.636;9.798;2023-01-27T05:11:42;96788.00;;;1.15;100.00
2761;BME280;15420;48.636;9.798;2023-01-27T05:14:08;96785.47;;;1.15;100.00
2761;BME280;15420;48.636;9.798;2023-01-27T05:16:36;96772.88;;;1.16;100.00
2761;BME280;15420;48.636;9.798;2023-01-27T05:19:03;96776.19;;;1.15;100.00
2761;BME280;15420;48.636;9.798;2023-01-27T05:21:32;96775.31;;;1.15;100.00
2761;BME280;15420;48.636;9.798;2023-01-27T05:23:58;96789.75;;;1.16;100.00
2761;BME280;15420;48.636;9.798;2023-01-27T05:26:29;96787.22;;;1.16;100.00
2761;BME280;15420;48.636;9.798;2023-01-27T05:28:58;96790.63;;;1.16;100.00
2761;BME280;15420;48.636;9.798;2023-01-27T05:31:30;96794.06;;;1.17;100.00
2761;BME280;15420;48.636;9.798;2023-01-27T05:33:59;96792.31;;;1.16;100.00
2761;BME280;15420;48.636;9.798;2023-01-27T05:36:29;96797.28;;;1.14;100.00
2761;BME280;15420;48.636;9.798;2023-01-27T05:38:58;96796.41;;;1.14;100.00
2761;BME280;15420;48.636;9.798;2023-01-27T05:41:24;96781.19;;;1.14;100.00
2761;BME280;15420;48.636;9.798;2023-01-27T05:43:54;96795.63;;;1.15;100.00
2761;BME280;15420;48.636;9.798;2023-01-27T05:46:23;96793.88;;;1.14;100.00
2761;BME280;15420;48.636;9.798;2023-01-27T05:48:53;96795.53;;;1.13;100.00
2761;BME280;15420;48.636;9.798;2023-01-27T05:51:21;96786.19;;;1.12;100.00
2761;BME280;15420;48.636;9.798;2023-01-27T05:53:50;96800.59;;;1.13;100.00
2761;BME280;15420;48.636;9.798;2023-01-27T05:56:18;96798.88;;;1.12;100.00
2761;BME280;15420;48.636;9.798;2023-01-27T05:58:45;96798.06;;;1.13;100.00
2761;BME280;15420;48.636;9.798;2023-01-27T06:03:41;96801.47;;;1.14;100.00
2761;BME280;15420;48.636;9.798;2023-01-27T06:06:11;96798.06;;;1.13;100.00
2761;BME280;15420;48.636;9.798;2023-01-27T06:08:38;96791.44;;;1.15;100.00
2761;BME280;15420;48.636;9.798;2023-01-27T06:11:10;96793.09;;;1.15;100.00
2761;BME280;15420;48.636;9.798;2023-01-27T06:13:37;96791.44;;;1.15;100.00
2761;BME280;15420;48.636;9.798;2023-01-27T06:16:06;96796.50;;;1.15;100.00
2761;BME280;15420;48.636;9.798;2023-01-27T06:18:36;96804.09;;;1.15;100.00
2761;BME280;15420;48.636;9.798;2023-01-27T06:21:06;96811.72;;;1.15;100.00
2761;BME280;15420;48.636;9.798;2023-01-27T06:23:33;96804.09;;;1.15;100.00
2761;BME280;15420;48.636;9.798;2023-01-27T06:26:14;96816.00;;;1.16;100.00
2761;BME280;15420;48.636;9.798;2023-01-27T06:28:43;96815.03;;;1.14;100.00
2761;BME280;15420;48.636;9.798;2023-01-27T06:31:16;96825.19;;;1.14;100.00
2761;BME280;15420;48.636;9.798;2023-01-27T06:33:44;96826.06;;;1.15;100.00
2761;BME280;15420;48.636;9.798;2023-01-27T06:36:15;96834.47;;;1.14;100.00
2761;BME280;15420;48.636;9.798;2023-01-27T06:38:44;96841.28;;;1.15;100.00
2761;BME280;15420;48.636;9.798;2023-01-27T06:41:11;96845.50;;;1.14;100.00
2761;BME280;15420;48.636;9.798;2023-01-27T06:43:37;96843.75;;;1.13;100.00
2761;BME280;15420;48.636;9.798;2023-01-27T06:46:06;96839.53;;;1.14;100.00
2761;BME280;15420;48.636;9.798;2023-01-27T06:48:34;96837.78;;;1.13;100.00
2761;BME280;15420;48.636;9.798;2023-01-27T06:51:05;96839.53;;;1.14;100.00
2761;BME280;15420;48.636;9.798;2023-01-27T06:53:31;96851.25;;;1.12;100.00
2761;BME280;15420;48.636;9.798;2023-01-27T06:55:59;96848.63;;;1.10;100.00
2761;BME280;15420;48.636;9.798;2023-01-27T06:58:28;96856.25;;;1.10;100.00
2761;BME280;15420;48.636;9.798;2023-01-27T07:00:55;96871.47;;;1.10;100.00
2761;BME280;15420;48.636;9.798;2023-01-27T07:03:22;96867.53;;;1.15;100.00
2761;BME280;15420;48.636;9.798;2023-01-27T07:05:48;96879.25;;;1.13;100.00
2761;BME280;15420;48.636;9.798;2023-01-27T07:08:15;96874.09;;;1.12;100.00
2761;BME280;15420;48.636;9.798;2023-01-27T07:10:41;96876.53;;;1.10;100.00
2761;BME280;15420;48.636;9.798;2023-01-27T07:13:09;96879.94;;;1.11;100.00
2761;BME280;15420;48.636;9.798;2023-01-27T07:15:39;96879.25;;;1.13;100.00
2761;BME280;15420;48.636;9.798;2023-01-27T07:18:05;96875.84;;;1.13;100.00
2761;BME280;15420;48.636;9.798;2023-01-27T07:20:31;96884.22;;;1.12;100.00
2761;BME280;15420;48.636;9.798;2023-01-27T07:23:02;96874.19;;;1.13;100.00
2761;BME280;15420;48.636;9.798;2023-01-27T07:25:29;96881.78;;;1.13;100.00
2761;BME280;15420;48.636;9.798;2023-01-27T07:28:00;96882.75;;;1.15;100.00
2761;BME280;15420;48.636;9.798;2023-01-27T07:30:27;96886.06;;;1.14;100.00
2761;BME280;15420;48.636;9.798;2023-01-27T07:32:53;96883.53;;;1.14;100.00
2761;BME280;15420;48.636;9.798;2023-01-27T07:35:22;96894.66;;;1.16;100.00
2761;BME280;15420;48.636;9.798;2023-01-27T07:37:48;96896.41;;;1.17;100.00
2761;BME280;15420;48.636;9.798;2023-01-27T07:40:15;96891.25;;;1.16;100.00
2761;BME280;15420;48.636;9.798;2023-01-27T07:42:43;96895.53;;;1.17;100.00
2761;BME280;15420;48.636;9.798;2023-01-27T07:45:10;96889.56;;;1.16;100.00
2761;BME280;15420;48.636;9.798;2023-01-27T07:47:38;96904.81;;;1.16;100.00
2761;BME280;15420;48.636;9.798;2023-01-27T07:50:05;96899.72;;;1.16;100.00
2761;BME280;15420;48.636;9.798;2023-01-27T07:52:31;96897.97;;;1.15;100.00
2761;BME280;15420;48.636;9.798;2023-01-27T07:54:57;96897.97;;;1.15;100.00
2761;BME280;15420;48.636;9.798;2023-01-27T07:57:28;96894.56;;;1.15;100.00
2761;BME280;15420;48.636;9.798;2023-01-27T07:59:54;96889.56;;;1.16;100.00
2761;BME280;15420;48.636;9.798;2023-01-27T08:02:22;96897.97;;;1.15;100.00
2761;BME280;15420;48.636;9.798;2023-01-27T08:04:51;96907.25;;;1.15;100.00
2761;BME280;15420;48.636;9.798;2023-01-27T08:07:17;96916.59;;;1.16;100.00
2761;BME280;15420;48.636;9.798;2023-01-27T08:09:45;96918.28;;;1.15;100.00
2761;BME280;15420;48.636;9.798;2023-01-27T08:12:12;96919.06;;;1.14;100.00
2761;BME280;15420;48.636;9.798;2023-01-27T08:14:38;96922.47;;;1.15;100.00
2761;BME280;15420;48.636;9.798;2023-01-27T08:17:04;96918.28;;;1.15;100.00
2761;BME280;15420;48.636;9.798;2023-01-27T08:19:32;96927.63;;;1.16;100.00
2761;BME280;15420;48.636;9.798;2023-01-27T08:22:03;96928.41;;;1.15;100.00
2761;BME280;15420;48.636;9.798;2023-01-27T08:24:29;96921.59;;;1.14;100.00
2761;BME280;15420;48.636;9.798;2023-01-27T08:26:56;96913.03;;;1.12;100.00
2761;BME280;15420;48.636;9.798;2023-01-27T08:29:22;96928.41;;;1.15;100.00
2761;BME280;15420;48.636;9.798;2023-01-27T08:31:48;96935.94;;;1.14;100.00
2761;BME280;15420;48.636;9.798;2023-01-27T08:34:17;96927.53;;;1.15;100.00
2761;BME280;15420;48.636;9.798;2023-01-27T08:36:43;96928.41;;;1.15;100.00
2761;BME280;15420;48.636;9.798;2023-01-27T08:39:14;96918.28;;;1.15;100.00
2761;BME280;15420;48.636;9.798;2023-01-27T08:41:40;96922.47;;;1.15;100.00
2761;BME280;15420;48.636;9.798;2023-01-27T08:44:06;96925.09;;;1.16;100.00
2761;BME280;15420;48.636;9.798;2023-01-27T08:46:32;96927.63;;;1.16;100.00
2761;BME280;15420;48.636;9.798;2023-01-27T08:48:59;96935.34;;;1.18;100.00
2761;BME280;15420;48.636;9.798;2023-01-27T08:51:25;96939.63;;;1.19;100.00
2761;BME280;15420;48.636;9.798;2023-01-27T08:53:53;96932.09;;;1.20;100.00
2761;BME280;15420;48.636;9.798;2023-01-27T08:56:20;96924.50;;;1.20;100.00
2761;BME280;15420;48.636;9.798;2023-01-27T08:58:48;96933.84;;;1.21;100.00
2761;BME280;15420;48.636;9.798;2023-01-27T09:01:17;96936.47;;;1.23;100.00
2761;BME280;15420;48.636;9.798;2023-01-27T09:03:44;96939.19;;;1.26;100.00
2761;BME280;15420;48.636;9.798;2023-01-27T09:06:11;96941.03;;;1.28;100.00
2761;BME280;15420;48.636;9.798;2023-01-27T09:08:38;96917.41;;;1.29;100.00
2761;BME280;15420;48.636;9.798;2023-01-27T09:11:14;96921.78;;;1.32;100.00
2761;BME280;15420;48.636;9.798;2023-01-27T09:13:43;96914.09;;;1.30;100.00
2761;BME280;15420;48.636;9.798;2023-01-27T09:16:09;96914.28;;;1.34;100.00
2761;BME280;15420;48.636;9.798;2023-01-27T09:18:40;96923.53;;;1.33;99.87
2761;BME280;15420;48.636;9.798;2023-01-27T09:21:09;96914.28;;;1.34;99.29
2761;BME280;15420;48.636;9.798;2023-01-27T09:23:35;96927.94;;;1.36;99.08
2761;BME280;15420;48.636;9.798;2023-01-27T09:26:01;96928.88;;;1.38;99.45
2761;BME280;15420;48.636;9.798;2023-01-27T09:28:27;96934.94;;;1.40;99.37
2761;BME280;15420;48.636;9.798;2023-01-27T09:30:57;96929.94;;;1.41;99.29
2761;BME280;15420;48.636;9.798;2023-01-27T09:33:28;96930.03;;;1.43;99.26
2761;BME280;15420;48.636;9.798;2023-01-27T09:36:01;96936.06;;;1.45;99.08
2761;BME280;15420;48.636;9.798;2023-01-27T09:38:33;96934.41;;;1.45;99.34
2761;BME280;15420;48.636;9.798;2023-01-27T09:41:14;96932.06;;;1.48;99.18
2761;BME280;15420;48.636;9.798;2023-01-27T10:03:47;96937.66;;;1.57;98.42
2761;BME280;15420;48.636;9.798;2023-01-27T10:11:56;96953.84;;;1.59;98.60
2761;BME280;15420;48.636;9.798;2023-01-27T10:14:49;96952.28;;;1.61;98.25
2761;BME280;15420;48.636;9.798;2023-01-27T10:20:28;96954.72;;;1.60;98.53
2761;BME280;15420;48.636;9.798;2023-01-27T10:28:49;96955.59;;;1.60;98.01
2761;BME280;15420;48.636;9.798;2023-01-27T10:31:30;96964.28;;;1.64;98.59
2761;BME280;15420;48.636;9.798;2023-01-27T10:34:12;96959.97;;;1.63;98.35
2761;BME280;15420;48.636;9.798;2023-01-27T10:36:48;96964.28;;;1.64;98.09
2761;BME280;15420;48.636;9.798;2023-01-27T10:50:41;96958.59;;;1.68;97.95
2761;BME280;15420;48.636;9.798;2023-01-27T10:56:00;96959.63;;;1.72;97.83
2761;BME280;15420;48.636;9.798;2023-01-27T11:01:16;96967.94;;;1.69;97.69
2761;BME280;15420;48.636;9.798;2023-01-27T11:06:26;96961.22;;;1.70;97.74
2761;BME280;15420;48.636;9.798;2023-01-27T11:11:51;96954.47;;;1.70;98.25
2761;BME280;15420;48.636;9.798;2023-01-27T11:14:36;96957.88;;;1.71;98.22
2761;BME280;15420;48.636;9.798;2023-01-27T11:17:31;96955.53;;;1.74;98.12
2761;BME280;15420;48.636;9.798;2023-01-27T11:23:17;96954.81;;;1.76;97.97
2761;BME280;15420;48.636;9.798;2023-01-27T11:25:54;96955.53;;;1.74;98.11
2761;BME280;15420;48.636;9.798;2023-01-27T11:31:44;96948.16;;;1.78;97.98
2761;BME280;15420;48.636;9.798;2023-01-27T11:37:22;96939.75;;;1.79;98.06
2761;BME280;15420;48.636;9.798;2023-01-27T11:39:51;96936.25;;;1.77;97.87
2761;BME280;15420;48.636;9.798;2023-01-27T11:42:18;96932.94;;;1.78;98.55
2761;BME280;15420;48.636;9.798;2023-01-27T11:44:49;96933.09;;;1.81;98.20
2761;BME280;15420;48.636;9.798;2023-01-27T11:47:25;96916.28;;;1.83;98.33
2761;BME280;15420;48.636;9.798;2023-01-27T11:49:53;96916.28;;;1.83;98.24
2761;BME280;15420;48.636;9.798;2023-01-27T11:52:24;96919.78;;;1.85;98.16
2761;BME280;15420;48.636;9.798;2023-01-27T11:55:18;96935.47;;;1.93;97.98
2761;BME280;15420;48.636;9.798;2023-01-27T11:58:19;96926.97;;;1.92;97.72
2761;BME280;15420;48.636;9.798;2023-01-27T12:00:58;96939.75;;;1.94;98.00
2761;BME280;15420;48.636;9.798;2023-01-27T12:05:54;96944.03;;;1.95;97.43
2761;BME280;15420;48.636;9.798;2023-01-27T12:08:39;96934.13;;;2.00;97.95
2761;BME280;15420;48.636;9.798;2023-01-27T12:11:17;96932.47;;;2.00;97.95
2761;BME280;15420;48.636;9.798;2023-01-27T12:14:00;96933.44;;;2.02;97.14
2761;BME280;15420;48.636;9.798;2023-01-27T12:19:04;96927.56;;;2.03;97.36
2761;BME280;15420;48.636;9.798;2023-01-27T12:21:47;96923.44;;;2.05;97.02
2761;BME280;15420;48.636;9.798;2023-01-27T12:26:59;96915.03;;;2.06;96.59
2761;BME280;15420;48.636;9.798;2023-01-27T12:32:15;96912.78;;;2.12;96.57
2761;BME280;15420;48.636;9.798;2023-01-27T12:34:46;96912.78;;;2.12;96.56
2761;BME280;15420;48.636;9.798;2023-01-27T12:37:27;96908.66;;;2.14;96.77
2761;BME280;15420;48.636;9.798;2023-01-27T12:40:02;96904.38;;;2.13;96.49
2761;BME280;15420;48.636;9.798;2023-01-27T12:42:46;96904.53;;;2.16;96.16
2761;BME280;15420;48.636;9.798;2023-01-27T12:45:20;96899.38;;;2.15;96.62
2761;BME280;15420;48.636;9.798;2023-01-27T12:50:33;96891.84;;;2.16;96.42
2761;BME280;15420;48.636;9.798;2023-01-27T12:55:55;96880.25;;;2.21;96.13
2761;BME280;15420;48.636;9.798;2023-01-27T13:00:59;96864.31;;;2.24;96.27
2761;BME280;15420;48.636;9.798;2023-01-27T13:03:25;96867.78;;;2.26;96.38
2761;BME280;15420;48.636;9.798;2023-01-27T13:05:57;96865.34;;;2.27;96.25
2761;BME280;15420;48.636;9.798;2023-01-27T13:08:27;96868.03;;;2.30;96.27
2761;BME280;15420;48.636;9.798;2023-01-27T13:10:59;96863.84;;;2.31;96.18
2761;BME280;15420;48.636;9.798;2023-01-27T13:13:28;96862.25;;;2.33;95.83
2761;BME280;15420;48.636;9.798;2023-01-27T13:16:23;96875.22;;;2.38;95.66
2761;BME280;15420;48.636;9.798;2023-01-27T13:18:58;96876.00;;;2.37;95.85
2761;BME280;15420;48.636;9.798;2023-01-27T13:21:35;96882.03;;;2.39;95.41
2761;BME280;15420;48.636;9.798;2023-01-27T13:24:14;96893.78;;;2.37;95.55
2761;BME280;15420;48.636;9.798;2023-01-27T13:26:51;96899.75;;;2.37;95.53
2761;BME280;15420;48.636;9.798;2023-01-27T13:29:24;96909.13;;;2.38;95.59
2761;BME280;15420;48.636;9.798;2023-01-27T13:37:13;96905.88;;;2.41;95.92
2761;BME280;15420;48.636;9.798;2023-01-27T13:40:22;96903.41;;;2.42;95.30
2761;BME280;15420;48.636;9.798;2023-01-27T13:43:11;96910.97;;;2.41;95.41
2761;BME280;15420;48.636;9.798;2023-01-27T13:48:25;96914.22;;;2.38;95.04
2761;BME280;15420;48.636;9.798;2023-01-27T13:51:14;96908.59;;;2.44;94.93
2761;BME280;15420;48.636;9.798;2023-01-27T13:53:42;96925.50;;;2.43;94.89
2761;BME280;15420;48.636;9.798;2023-01-27T14:10:24;96917.72;;;2.40;94.62
2761;BME280;15420;48.636;9.798;2023-01-27T14:15:51;96927.97;;;2.42;94.71
2761;BME280;15420;48.636;9.798;2023-01-27T14:18:39;96931.38;;;2.42;94.75
2761;BME280;15420;48.636;9.798;2023-01-27T14:40:34;96950.75;;;2.40;96.01
2761;BME280;15420;48.636;9.798;2023-01-27T14:43:35;96951.47;;;2.38;95.98
2761;BME280;15420;48.636;9.798;2023-01-27T14:51:38;96945.34;;;2.34;96.93
2761;BME280;15420;48.636;9.798;2023-01-27T14:59:48;96952.25;;;2.37;96.96
2761;BME280;15420;48.636;9.798;2023-01-27T15:07:55;96950.97;;;2.28;97.25
2761;BME280;15420;48.636;9.798;2023-01-27T15:10:25;96949.28;;;2.29;97.63
2761;BME280;15420;48.636;9.798;2023-01-27T15:16:17;96947.47;;;2.26;97.07
2761;BME280;15420;48.636;9.798;2023-01-27T15:26:40;96950.47;;;2.19;98.06
2761;BME280;15420;48.636;9.798;2023-01-27T15:29:12;96953.88;;;2.20;97.99
2761;BME280;15420;48.636;9.798;2023-01-27T15:31:44;96953.78;;;2.18;97.94
2761;BME280;15420;48.636;9.798;2023-01-27T15:34:29;96954.41;;;2.14;97.61
2761;BME280;15420;48.636;9.798;2023-01-27T15:37:01;96959.56;;;2.16;98.08
2761;BME280;15420;48.636;9.798;2023-01-27T15:39:28;96964.47;;;2.13;97.78
2761;BME280;15420;48.636;9.798;2023-01-27T15:47:09;96974.56;;;2.11;97.36
2761;BME280;15420;48.636;9.798;2023-01-27T15:49:44;96966.78;;;2.08;97.97
2761;BME280;15420;48.636;9.798;2023-01-27T15:54:56;96980.22;;;2.06;97.62
2761;BME280;15420;48.636;9.798;2023-01-27T16:00:05;96996.34;;;2.06;97.52
2761;BME280;15420;48.636;9.798;2023-01-27T16:02:43;96990.38;;;2.06;97.79
2761;BME280;15420;48.636;9.798;2023-01-27T16:05:24;96997.22;;;2.07;97.66
2761;BME280;15420;48.636;9.798;2023-01-27T16:07:54;96993.63;;;2.03;97.78
2761;BME280;15420;48.636;9.798;2023-01-27T16:10:26;96993.63;;;2.03;97.88
2761;BME280;15420;48.636;9.798;2023-01-27T16:15:48;96999.41;;;2.01;98.36
2761;BME280;15420;48.636;9.798;2023-01-27T16:21:03;97004.66;;;2.04;97.99
2761;BME280;15420;48.636;9.798;2023-01-27T16:23:56;97015.53;;;2.01;98.65
2761;BME280;15420;48.636;9.798;2023-01-27T16:29:28;97010.34;;;2.00;98.63
2761;BME280;15420;48.636;9.798;2023-01-27T16:32:04;97012.63;;;1.95;98.91
2761;BME280;15420;48.636;9.798;2023-01-27T16:34:43;97020.25;;;1.95;98.66
2761;BME280;15420;48.636;9.798;2023-01-27T16:37:27;97011.84;;;1.96;98.99